createdAt,value
2023-01-17T00:01:21.264Z,90.33
2023-01-17T00:04:08.942Z,90.24
2023-01-17T00:06:55.492Z,88.92
2023-01-17T00:09:41.620Z,89.49
2023-01-17T00:12:09.389Z,89.46
2023-01-17T00:14:38.570Z,88.41
2023-01-17T00:17:06.387Z,87.65
2023-01-17T00:19:51.665Z,87.37
2023-01-17T00:22:41.917Z,86.57
2023-01-17T00:25:29.846Z,85.50
2023-01-17T00:27:56.441Z,85.10
2023-01-17T00:30:23.208Z,84.04
2023-01-17T00:32:50.835Z,82.70
2023-01-17T00:35:17.977Z,82.80
2023-01-17T00:37:45.833Z,81.75
2023-01-17T00:40:12.653Z,81.09
2023-01-17T00:42:39.162Z,80.23
2023-01-17T00:45:25.107Z,79.35
2023-01-17T00:48:10.222Z,79.80
2023-01-17T00:50:55.448Z,79.26
2023-01-17T00:53:41.739Z,81.09
2023-01-17T00:56:27.040Z,80.87
2023-01-17T00:59:13.208Z,81.08
2023-01-17T01:01:58.808Z,79.95
2023-01-17T01:04:45.334Z,78.71
2023-01-17T01:07:30.863Z,78.90
2023-01-17T01:10:17.436Z,79.00
2023-01-17T01:13:02.826Z,78.66
2023-01-17T01:15:48.244Z,78.88
2023-01-17T01:18:33.246Z,78.22
2023-01-17T01:21:21.775Z,77.03
2023-01-17T01:24:06.590Z,77.33
2023-01-17T01:26:53.212Z,76.88
2023-01-17T01:29:38.239Z,76.51
2023-01-17T01:32:23.972Z,76.10
2023-01-17T01:34:51.529Z,75.92
2023-01-17T01:37:19.294Z,76.27
2023-01-17T01:39:46.872Z,76.48
2023-01-17T01:42:16.846Z,75.90
2023-01-17T01:44:47.614Z,76.16
2023-01-17T01:47:21.796Z,76.81
2023-01-17T01:49:53.105Z,77.25
2023-01-17T01:52:23.151Z,76.12
2023-01-17T01:54:55.258Z,76.95
2023-01-17T01:57:30.543Z,76.54
2023-01-17T02:00:03.298Z,75.93
2023-01-17T02:02:32.229Z,76.35
2023-01-17T02:05:03.684Z,76.18
2023-01-17T02:07:38.063Z,75.68
2023-01-17T02:10:06.357Z,76.57
2023-01-17T02:12:36.477Z,75.67
2023-01-17T02:15:07.836Z,75.21
2023-01-17T02:17:46.652Z,74.34
2023-01-17T02:20:49.769Z,74.54
2023-01-17T02:23:41.332Z,74.75
2023-01-17T02:26:46.634Z,74.99
2023-01-17T02:29:40.241Z,74.29
2023-01-17T02:32:22.659Z,74.00
2023-01-17T02:34:59.138Z,73.54
2023-01-17T02:37:34.826Z,74.34
2023-01-17T02:40:13.763Z,74.34
2023-01-17T02:42:44.602Z,74.17
2023-01-17T02:45:16.943Z,73.54
2023-01-17T02:47:45.856Z,73.77
2023-01-17T02:50:17.141Z,74.46
2023-01-17T02:53:02.697Z,74.18
2023-01-17T02:55:43.006Z,74.14
2023-01-17T02:58:26.061Z,74.15
2023-01-17T03:01:03.814Z,74.52
2023-01-17T03:03:38.912Z,74.42
2023-01-17T03:06:13.348Z,73.57
2023-01-17T03:08:44.503Z,72.60
2023-01-17T03:11:13.365Z,72.42
2023-01-17T03:13:41.217Z,72.86
2023-01-17T03:16:13.075Z,72.16
2023-01-17T03:18:44.583Z,72.52
2023-01-17T03:21:12.280Z,73.28
2023-01-17T03:23:40.367Z,73.27
2023-01-17T03:26:07.954Z,73.45
2023-01-17T03:28:38.619Z,72.63
2023-01-17T03:31:06.703Z,72.86
2023-01-17T03:33:34.705Z,72.34
2023-01-17T03:36:04.885Z,72.31
2023-01-17T03:38:32.955Z,73.00
2023-01-17T03:41:00.600Z,72.73
2023-01-17T03:43:28.629Z,72.71
2023-01-17T03:46:02.977Z,72.50
2023-01-17T03:48:31.005Z,72.30
2023-01-17T03:50:59.666Z,72.94
2023-01-17T03:53:28.946Z,72.06
2023-01-17T03:55:57.831Z,72.78
2023-01-17T03:58:26.396Z,72.79
2023-01-17T04:00:54.178Z,73.61
2023-01-17T04:03:22.092Z,73.80
2023-01-17T04:05:49.642Z,74.14
2023-01-17T04:08:17.441Z,74.34
2023-01-17T04:10:46.412Z,73.87
2023-01-17T04:13:14.888Z,74.80
2023-01-17T04:15:43.483Z,75.26
2023-01-17T04:18:13.384Z,75.04
2023-01-17T04:20:41.671Z,74.90
2023-01-17T04:23:09.273Z,74.77
2023-01-17T04:25:37.821Z,74.86
2023-01-17T04:28:07.002Z,74.68
2023-01-17T04:30:34.911Z,75.16
2023-01-17T04:33:02.675Z,75.44
2023-01-17T04:35:31.192Z,75.71
2023-01-17T04:37:59.005Z,75.88
2023-01-17T04:40:26.685Z,76.37
2023-01-17T04:42:54.983Z,76.73
2023-01-17T04:45:24.186Z,78.27
2023-01-17T04:47:54.899Z,78.13
2023-01-17T04:50:22.820Z,78.90
2023-01-17T04:52:51.344Z,78.51
2023-01-17T04:55:18.950Z,78.60
2023-01-17T04:57:46.534Z,79.27
2023-01-17T05:00:16.413Z,80.32
2023-01-17T05:02:45.691Z,81.25
2023-01-17T05:05:16.567Z,81.68
2023-01-17T05:07:46.693Z,81.64
2023-01-17T05:10:14.329Z,82.44
2023-01-17T05:12:41.901Z,82.91
2023-01-17T05:15:10.402Z,83.48
2023-01-17T05:17:38.557Z,83.48
2023-01-17T05:20:21.914Z,83.57
2023-01-17T05:22:55.445Z,84.16
2023-01-17T05:25:24.752Z,84.34
2023-01-17T05:27:52.697Z,84.47
2023-01-17T05:30:21.790Z,84.04
2023-01-17T05:32:53.133Z,84.02
2023-01-17T05:35:25.870Z,83.99
2023-01-17T05:37:53.809Z,84.56
2023-01-17T05:40:24.713Z,83.58
2023-01-17T05:42:59.456Z,84.34
2023-01-17T05:45:29.666Z,85.32
2023-01-17T05:47:59.206Z,84.48
2023-01-17T05:50:33.370Z,85.17
2023-01-17T05:53:03.615Z,85.19
2023-01-17T05:55:32.709Z,84.76
2023-01-17T05:58:02.157Z,85.30
2023-01-17T06:00:33.884Z,84.96
2023-01-17T06:03:02.501Z,84.81
2023-01-17T06:05:32.522Z,84.11
2023-01-17T06:08:00.593Z,84.01
2023-01-17T06:10:30.045Z,83.85
2023-01-17T06:13:04.806Z,83.97
2023-01-17T06:15:33.140Z,83.85
2023-01-17T06:18:05.664Z,83.50
2023-01-17T06:20:35.024Z,83.89
2023-01-17T06:23:04.539Z,84.62
2023-01-17T06:25:37.861Z,84.03
2023-01-17T06:28:06.052Z,84.72
2023-01-17T06:30:34.308Z,85.35
2023-01-17T06:33:06.314Z,84.81
2023-01-17T06:35:37.514Z,84.26
2023-01-17T06:38:05.295Z,84.70
2023-01-17T06:40:33.189Z,83.66
2023-01-17T06:43:02.607Z,84.29
2023-01-17T06:45:34.736Z,83.74
2023-01-17T06:48:15.073Z,83.26
2023-01-17T06:50:44.399Z,83.62
2023-01-17T06:53:11.970Z,84.04
2023-01-17T06:55:43.571Z,84.01
2023-01-17T06:58:11.413Z,84.97
2023-01-17T07:00:40.936Z,85.03
2023-01-17T07:03:16.647Z,85.28
2023-01-17T07:05:45.509Z,84.77
2023-01-17T07:08:13.217Z,85.57
2023-01-17T07:10:41.150Z,85.56
2023-01-17T07:13:09.442Z,85.90
2023-01-17T07:15:37.147Z,86.16
2023-01-17T07:18:05.462Z,87.16
2023-01-17T07:20:33.446Z,87.00
2023-01-17T07:23:03.344Z,87.14
2023-01-17T07:25:31.051Z,87.31
2023-01-17T07:27:58.893Z,87.45
2023-01-17T07:30:26.889Z,88.66
2023-01-17T07:32:55.290Z,88.17
2023-01-17T07:35:26.503Z,86.86
2023-01-17T07:37:56.311Z,85.41
2023-01-17T07:40:25.721Z,83.45
2023-01-17T07:42:53.667Z,80.87
2023-01-17T07:45:21.868Z,78.37
2023-01-17T07:47:49.994Z,76.92
2023-01-17T07:50:17.751Z,75.49
2023-01-17T07:52:50.085Z,74.81
2023-01-17T07:55:18.177Z,75.00
2023-01-17T07:57:51.531Z,74.83
2023-01-17T08:00:19.997Z,73.52
2023-01-17T08:02:47.826Z,71.77
2023-01-17T08:05:15.791Z,71.22
2023-01-17T08:07:43.378Z,70.50
2023-01-17T08:10:17.807Z,69.50
2023-01-17T08:12:46.597Z,69.70
2023-01-17T08:15:16.217Z,67.83
2023-01-17T08:17:48.285Z,67.53
2023-01-17T08:20:16.370Z,68.89
2023-01-17T08:22:43.893Z,69.76
2023-01-17T08:25:12.465Z,71.09
2023-01-17T08:27:40.365Z,71.85
2023-01-17T08:30:09.524Z,72.94
2023-01-17T08:32:40.725Z,74.68
2023-01-17T08:35:09.288Z,75.46
2023-01-17T08:37:38.252Z,76.50
2023-01-17T08:40:07.849Z,77.44
2023-01-17T08:42:39.265Z,77.93
2023-01-17T08:45:08.704Z,77.79
2023-01-17T08:47:36.516Z,77.73
2023-01-17T08:50:07.163Z,78.80
2023-01-17T08:52:36.068Z,78.75
2023-01-17T08:55:05.717Z,78.41
2023-01-17T08:57:33.588Z,80.79
2023-01-17T09:00:01.408Z,83.17
2023-01-17T09:02:29.150Z,78.68
2023-01-17T09:04:56.676Z,76.46
2023-01-17T09:07:26.888Z,76.06
2023-01-17T09:09:54.545Z,75.12
2023-01-17T09:12:22.632Z,75.57
2023-01-17T09:14:50.262Z,75.45
2023-01-17T09:17:17.926Z,75.24
2023-01-17T09:19:47.853Z,76.28
2023-01-17T09:22:15.769Z,75.11
2023-01-17T09:24:44.725Z,74.71
2023-01-17T09:27:12.567Z,74.83
2023-01-17T09:29:40.136Z,75.89
2023-01-17T09:32:07.772Z,76.65
2023-01-17T09:34:35.384Z,75.43
2023-01-17T09:37:02.974Z,75.61
2023-01-17T09:39:30.579Z,74.92
2023-01-17T09:42:08.185Z,74.53
2023-01-17T09:44:42.713Z,74.36
2023-01-17T09:47:18.098Z,73.92
2023-01-17T09:49:47.863Z,77.62
2023-01-17T09:52:18.567Z,79.82
2023-01-17T09:54:48.017Z,72.42
2023-01-17T09:57:32.608Z,70.21
2023-01-17T10:00:12.257Z,70.07
2023-01-17T10:02:50.545Z,70.26
2023-01-17T10:05:37.867Z,70.25
2023-01-17T10:08:18.306Z,68.20
2023-01-17T10:10:57.709Z,66.06
2023-01-17T10:13:39.221Z,64.89
2023-01-17T10:16:22.554Z,64.42
2023-01-17T10:19:07.299Z,65.38
2023-01-17T10:21:49.419Z,64.71
2023-01-17T10:24:36.703Z,62.80
2023-01-17T10:27:10.915Z,62.23
2023-01-17T10:29:41.132Z,62.29
2023-01-17T10:32:13.621Z,61.08
2023-01-17T10:34:47.226Z,62.14
2023-01-17T10:37:20.168Z,62.35
2023-01-17T10:39:50.185Z,62.66
2023-01-17T10:42:22.837Z,63.17
2023-01-17T10:45:00.457Z,62.42
2023-01-17T10:47:33.487Z,63.57
2023-01-17T10:50:05.070Z,63.49
2023-01-17T10:52:45.246Z,62.63
2023-01-17T10:55:30.152Z,61.61
2023-01-17T10:57:58.885Z,59.20
2023-01-17T11:00:44.045Z,58.67
2023-01-17T11:03:13.223Z,58.78
2023-01-17T11:05:42.805Z,59.08
2023-01-17T11:08:13.617Z,58.77
2023-01-17T11:10:44.912Z,60.05
2023-01-17T11:13:26.070Z,60.82
2023-01-17T11:15:58.804Z,61.96
2023-01-17T11:18:29.641Z,61.79
2023-01-17T11:21:11.283Z,62.22
2023-01-17T11:23:42.084Z,62.71
2023-01-17T11:26:15.031Z,61.40
2023-01-17T11:28:42.783Z,62.16
2023-01-17T11:31:27.420Z,61.58
2023-01-17T11:34:14.861Z,59.75
2023-01-17T11:36:42.721Z,60.17
2023-01-17T11:39:25.866Z,56.60
2023-01-17T11:41:53.807Z,54.33
2023-01-17T11:44:28.262Z,54.22
2023-01-17T11:47:17.164Z,53.84
2023-01-17T11:49:46.718Z,53.49
2023-01-17T11:52:23.200Z,52.73
2023-01-17T11:54:53.568Z,52.12
2023-01-17T11:57:25.027Z,52.20
2023-01-17T12:00:04.663Z,51.07
2023-01-17T12:02:45.779Z,51.34
2023-01-17T12:05:31.831Z,52.52
2023-01-17T12:08:09.664Z,52.31
2023-01-17T12:10:46.600Z,54.90
2023-01-17T12:13:43.169Z,53.58
2023-01-17T12:16:33.147Z,54.91
2023-01-17T12:19:32.191Z,54.14
2023-01-17T12:22:16.181Z,53.40
2023-01-17T12:25:08.896Z,53.44
2023-01-17T12:27:49.381Z,52.73
2023-01-17T12:30:30.579Z,51.02
2023-01-17T12:33:19.009Z,51.51
2023-01-17T12:35:53.025Z,51.30
2023-01-17T12:38:32.917Z,50.30
2023-01-17T12:41:05.885Z,49.77
2023-01-17T12:43:37.126Z,50.35
2023-01-17T12:46:12.689Z,50.68
2023-01-17T12:48:40.288Z,50.34
2023-01-17T12:51:16.539Z,50.67
2023-01-17T12:53:51.797Z,51.83
2023-01-17T12:56:27.615Z,52.90
2023-01-17T12:59:01.966Z,52.35
2023-01-17T13:01:32.113Z,52.88
2023-01-17T13:04:10.008Z,52.87
2023-01-17T13:06:50.855Z,55.01
2023-01-17T13:09:22.638Z,55.22
2023-01-17T13:11:54.726Z,55.35
2023-01-17T13:14:22.380Z,55.20
2023-01-17T13:16:58.023Z,54.79
2023-01-17T13:19:34.576Z,54.93
2023-01-17T13:22:08.024Z,54.81
2023-01-17T13:24:45.242Z,54.08
2023-01-17T13:27:39.911Z,54.51
2023-01-17T13:30:22.023Z,53.51
2023-01-17T13:33:02.912Z,53.32
2023-01-17T13:35:41.922Z,53.28
2023-01-17T13:38:30.410Z,52.91
2023-01-17T13:41:04.617Z,52.99
2023-01-17T13:43:36.746Z,52.45
2023-01-17T13:46:05.015Z,51.76
2023-01-17T13:48:34.544Z,51.19
2023-01-17T13:51:03.732Z,50.40
2023-01-17T13:53:57.176Z,49.21
2023-01-17T13:56:33.614Z,50.09
2023-01-17T13:59:30.923Z,49.38
2023-01-17T14:01:58.769Z,49.78
2023-01-17T14:05:15.013Z,50.92
2023-01-17T14:07:48.188Z,49.91
2023-01-17T14:10:33.161Z,50.73
2023-01-17T14:13:01.602Z,51.20
2023-01-17T14:15:32.445Z,51.64
2023-01-17T14:18:03.204Z,50.88
2023-01-17T14:20:52.723Z,50.51
2023-01-17T14:23:46.799Z,52.78
2023-01-17T14:26:44.303Z,55.64
2023-01-17T14:29:49.244Z,56.45
2023-01-17T14:32:19.690Z,54.56
2023-01-17T14:34:49.418Z,54.82
2023-01-17T14:37:22.171Z,54.61
2023-01-17T14:39:51.488Z,54.55
2023-01-17T14:42:23.619Z,56.12
2023-01-17T14:44:54.052Z,56.99
2023-01-17T14:47:22.401Z,57.86
2023-01-17T14:49:49.985Z,58.23
2023-01-17T14:52:19.400Z,57.65
2023-01-17T14:54:53.401Z,57.53
2023-01-17T14:57:27.817Z,57.89
2023-01-17T15:00:18.413Z,58.79
2023-01-17T15:02:47.452Z,57.82
2023-01-17T15:05:19.467Z,58.28
2023-01-17T15:07:52.987Z,58.14
2023-01-17T15:10:24.722Z,58.49
2023-01-17T15:12:56.197Z,58.37
2023-01-17T15:15:30.139Z,57.57
2023-01-17T15:18:19.270Z,56.89
2023-01-17T15:20:52.640Z,57.26
2023-01-17T15:23:23.303Z,58.55
2023-01-17T15:25:53.382Z,59.09
2023-01-17T15:28:22.393Z,59.10
2023-01-17T15:31:11.336Z,58.68
2023-01-17T15:33:41.318Z,58.86
2023-01-17T15:36:12.663Z,58.75
2023-01-17T15:38:56.405Z,59.96
2023-01-17T15:41:27.331Z,59.44
2023-01-17T15:43:58.523Z,59.05
2023-01-17T15:46:31.522Z,59.73
2023-01-17T15:49:17.512Z,60.34
2023-01-17T15:51:51.604Z,60.51
2023-01-17T15:54:41.776Z,60.54
2023-01-17T15:57:23.396Z,61.36
2023-01-17T15:59:56.528Z,62.01
2023-01-17T16:02:42.965Z,62.28
2023-01-17T16:05:33.441Z,61.74
2023-01-17T16:08:32.576Z,62.33
2023-01-17T16:11:02.927Z,63.05
2023-01-17T16:13:32.633Z,62.78
2023-01-17T16:16:18.097Z,63.37
2023-01-17T16:18:47.664Z,63.47
2023-01-17T16:21:26.840Z,62.69
2023-01-17T16:23:55.168Z,63.33
2023-01-17T16:26:23.236Z,63.72
2023-01-17T16:28:51.460Z,63.94
2023-01-17T16:31:20.526Z,63.03
2023-01-17T16:33:50.452Z,63.54
2023-01-17T16:36:20.759Z,63.58
2023-01-17T16:38:50.758Z,64.10
2023-01-17T16:41:18.920Z,63.67
2023-01-17T16:43:50.214Z,65.20
2023-01-17T16:46:23.542Z,65.84
2023-01-17T16:48:51.392Z,66.84
2023-01-17T16:51:19.321Z,66.79
2023-01-17T16:53:47.007Z,64.84
2023-01-17T16:56:17.779Z,65.05
2023-01-17T16:58:45.457Z,67.46
2023-01-17T17:01:16.341Z,68.06
2023-01-17T17:03:46.125Z,65.82
2023-01-17T17:06:15.159Z,65.09
2023-01-17T17:08:45.165Z,64.79
2023-01-17T17:11:15.611Z,65.45
2023-01-17T17:13:44.386Z,65.68
2023-01-17T17:16:17.478Z,65.54
2023-01-17T17:18:48.493Z,64.63
2023-01-17T17:21:16.007Z,65.27
2023-01-17T17:23:44.010Z,64.38
2023-01-17T17:26:11.567Z,64.94
2023-01-17T17:28:39.091Z,64.40
2023-01-17T17:31:10.297Z,63.90
2023-01-17T17:33:38.652Z,63.72
2023-01-17T17:36:10.076Z,64.22
2023-01-17T17:38:39.188Z,62.59
2023-01-17T17:41:09.545Z,63.32
2023-01-17T17:43:41.302Z,63.73
2023-01-17T17:46:09.108Z,63.12
2023-01-17T17:48:37.391Z,63.72
2023-01-17T17:51:07.039Z,63.39
2023-01-17T17:53:34.723Z,64.77
2023-01-17T17:56:06.676Z,63.65
2023-01-17T17:58:36.268Z,63.47
2023-01-17T18:01:05.685Z,63.55
2023-01-17T18:03:33.695Z,65.08
2023-01-17T18:06:03.190Z,65.36
2023-01-17T18:08:32.692Z,64.82
2023-01-17T18:11:03.283Z,64.94
2023-01-17T18:13:32.973Z,64.24
2023-01-17T18:16:03.909Z,63.85
2023-01-17T18:18:32.503Z,63.91
2023-01-17T18:21:12.291Z,64.09
2023-01-17T18:23:43.280Z,65.38
2023-01-17T18:26:17.531Z,65.74
2023-01-17T18:28:46.100Z,65.44
2023-01-17T18:31:14.176Z,66.29
2023-01-17T18:33:42.636Z,65.83
2023-01-17T18:36:12.453Z,65.26
2023-01-17T18:38:44.002Z,65.12
2023-01-17T18:41:14.120Z,65.58
2023-01-17T18:43:42.361Z,65.65
2023-01-17T18:46:12.514Z,66.67
2023-01-17T18:48:41.353Z,67.22
2023-01-17T18:51:10.734Z,66.29
2023-01-17T18:53:39.393Z,66.14
2023-01-17T18:56:10.883Z,66.24
2023-01-17T18:58:40.867Z,65.67
2023-01-17T19:01:10.370Z,66.97
2023-01-17T19:03:39.843Z,66.74
2023-01-17T19:06:26.901Z,66.43
2023-01-17T19:08:54.694Z,67.15
2023-01-17T19:11:25.665Z,66.73
2023-01-17T19:13:53.783Z,66.95
2023-01-17T19:16:25.044Z,68.22
2023-01-17T19:18:53.377Z,67.48
2023-01-17T19:21:23.624Z,67.00
2023-01-17T19:23:51.391Z,67.60
2023-01-17T19:26:22.841Z,68.84
2023-01-17T19:28:51.912Z,67.38
2023-01-17T19:31:22.100Z,67.01
2023-01-17T19:33:51.099Z,67.93
2023-01-17T19:36:23.288Z,69.29
2023-01-17T19:39:03.447Z,69.70
2023-01-17T19:41:32.643Z,69.68
2023-01-17T19:44:03.539Z,69.81
2023-01-17T19:46:31.281Z,70.68
2023-01-17T19:48:59.580Z,69.88
2023-01-17T19:51:28.671Z,70.87
2023-01-17T19:53:58.831Z,70.91
2023-01-17T19:56:27.429Z,71.06
2023-01-17T19:58:57.062Z,71.75
2023-01-17T20:01:30.631Z,72.37
2023-01-17T20:03:58.914Z,73.22
2023-01-17T20:06:29.179Z,71.99
2023-01-17T20:08:57.001Z,72.39
2023-01-17T20:11:26.510Z,72.92
2023-01-17T20:13:55.521Z,73.09
2023-01-17T20:16:25.098Z,73.72
2023-01-17T20:18:54.293Z,74.39
2023-01-17T20:21:23.490Z,74.25
2023-01-17T20:23:53.143Z,75.06
2023-01-17T20:26:23.142Z,75.26
2023-01-17T20:28:52.355Z,75.32
2023-01-17T20:31:21.647Z,75.31
2023-01-17T20:33:50.615Z,75.64
2023-01-17T20:36:21.588Z,74.36
2023-01-17T20:38:49.344Z,75.10
2023-01-17T20:41:19.269Z,75.31
2023-01-17T20:43:48.486Z,74.56
2023-01-17T20:46:16.834Z,74.03
2023-01-17T20:48:45.609Z,74.89
2023-01-17T20:51:14.500Z,73.86
2023-01-17T20:53:45.216Z,73.38
2023-01-17T20:56:15.265Z,73.16
2023-01-17T20:58:43.812Z,73.95
2023-01-17T21:01:13.775Z,73.34
2023-01-17T21:03:41.468Z,73.57
2023-01-17T21:06:10.616Z,73.92
2023-01-17T21:08:39.547Z,75.04
2023-01-17T21:11:10.420Z,72.76
2023-01-17T21:13:38.013Z,72.31
2023-01-17T21:16:06.995Z,72.77
2023-01-17T21:18:34.595Z,72.19
2023-01-17T21:21:07.276Z,72.47
2023-01-17T21:23:35.102Z,72.47
2023-01-17T21:26:02.820Z,73.06
2023-01-17T21:28:34.791Z,73.55
2023-01-17T21:31:18.026Z,72.88
2023-01-17T21:33:46.815Z,72.24
2023-01-17T21:36:16.547Z,72.68
2023-01-17T21:38:52.119Z,74.20
2023-01-17T21:41:21.788Z,74.34
2023-01-17T21:43:55.011Z,75.86
2023-01-17T21:46:22.562Z,74.15
2023-01-17T21:48:50.232Z,74.63
2023-01-17T21:51:19.427Z,73.92
2023-01-17T21:53:47.046Z,74.45
2023-01-17T21:56:33.316Z,74.04
2023-01-17T21:59:02.309Z,74.57
2023-01-17T22:01:33.143Z,75.25
2023-01-17T22:04:04.115Z,76.58
2023-01-17T22:06:34.234Z,77.75
2023-01-17T22:09:02.070Z,77.92
2023-01-17T22:11:30.428Z,76.68
2023-01-17T22:13:59.452Z,75.87
2023-01-17T22:16:31.527Z,76.49
2023-01-17T22:19:01.824Z,75.94
2023-01-17T22:21:29.790Z,76.64
2023-01-17T22:23:59.930Z,75.90
2023-01-17T22:26:29.446Z,76.38
2023-01-17T22:29:00.466Z,77.49
2023-01-17T22:31:29.899Z,77.12
2023-01-17T22:33:59.670Z,77.61
2023-01-17T22:36:28.390Z,77.20
2023-01-17T22:38:56.849Z,77.64
2023-01-17T22:41:29.318Z,77.29
2023-01-17T22:43:59.048Z,77.01
2023-01-17T22:46:30.024Z,76.65
2023-01-17T22:48:58.748Z,77.04
2023-01-17T22:51:28.058Z,77.93
2023-01-17T22:53:58.306Z,77.62
2023-01-17T22:56:30.247Z,77.85
2023-01-17T22:59:00.938Z,77.67
2023-01-17T23:01:32.682Z,77.99
2023-01-17T23:04:02.724Z,77.98
2023-01-17T23:06:32.033Z,78.39
2023-01-17T23:09:01.399Z,79.04
2023-01-17T23:11:41.049Z,79.85
2023-01-17T23:14:12.407Z,79.25
2023-01-17T23:17:00.903Z,78.43
2023-01-17T23:19:31.753Z,78.67
2023-01-17T23:22:18.963Z,79.84
2023-01-17T23:24:49.795Z,80.36
2023-01-17T23:27:37.660Z,80.46
2023-01-17T23:30:07.110Z,79.34
2023-01-17T23:32:36.310Z,79.81
2023-01-17T23:35:04.242Z,80.19
2023-01-17T23:37:46.285Z,80.24
2023-01-17T23:40:14.379Z,79.26
2023-01-17T23:42:59.793Z,79.92
2023-01-17T23:45:27.897Z,80.26
2023-01-17T23:47:56.850Z,80.25
2023-01-17T23:50:24.642Z,81.36
2023-01-17T23:52:52.304Z,79.40
2023-01-17T23:55:20.086Z,80.54
2023-01-17T23:57:49.738Z,79.59
